createdAt,value
2023-10-25T00:02:09.128Z,5.80
2023-10-25T00:04:37.082Z,6.93
2023-10-25T00:07:06.557Z,6.90
2023-10-25T00:09:34.661Z,6.77
2023-10-25T00:12:02.572Z,5.50
2023-10-25T00:14:30.459Z,6.57
2023-10-25T00:16:58.402Z,5.10
2023-10-25T00:19:26.385Z,5.83
2023-10-25T00:21:54.303Z,6.10
2023-10-25T00:24:25.025Z,5.50
2023-10-25T00:26:53.024Z,5.17
2023-10-25T00:29:20.939Z,5.50
2023-10-25T00:31:48.946Z,5.80
2023-10-25T00:34:16.894Z,6.50
2023-10-25T00:36:44.807Z,6.33
2023-10-25T00:39:12.714Z,7.57
2023-10-25T00:41:42.015Z,6.53
2023-10-25T00:44:09.904Z,6.70
2023-10-25T00:46:38.152Z,6.70
2023-10-25T00:49:08.453Z,6.87
2023-10-25T00:51:37.835Z,7.30
2023-10-25T00:54:06.349Z,7.17
2023-10-25T00:56:35.099Z,7.37
2023-10-25T00:59:04.668Z,8.37
2023-10-25T01:01:32.810Z,8.37
2023-10-25T01:04:00.941Z,7.50
2023-10-25T01:06:28.912Z,7.87
2023-10-25T01:08:56.775Z,8.70
2023-10-25T01:11:24.750Z,8.60
2023-10-25T01:13:52.633Z,7.43
2023-10-25T01:16:22.427Z,8.93
2023-10-25T01:18:50.487Z,8.00
2023-10-25T01:21:18.586Z,8.33
2023-10-25T01:23:52.944Z,8.70
2023-10-25T01:26:21.168Z,8.93
2023-10-25T01:28:49.325Z,9.77
2023-10-25T01:31:17.294Z,9.23
2023-10-25T01:33:46.198Z,10.67
2023-10-25T01:36:14.165Z,11.93
2023-10-25T01:38:42.107Z,12.53
2023-10-25T01:41:17.022Z,12.57
2023-10-25T01:43:45.245Z,11.90
2023-10-25T01:46:13.336Z,12.83
2023-10-25T01:48:41.412Z,12.43
2023-10-25T01:51:10.999Z,14.70
2023-10-25T01:53:40.251Z,13.97
2023-10-25T01:56:08.122Z,14.80
2023-10-25T01:58:37.756Z,15.57
2023-10-25T02:01:07.795Z,15.00
2023-10-25T02:03:36.031Z,15.47
2023-10-25T02:06:13.510Z,14.57
2023-10-25T02:08:41.533Z,15.80
2023-10-25T02:11:09.530Z,14.07
2023-10-25T02:13:39.264Z,14.60
2023-10-25T02:16:15.256Z,13.43
2023-10-25T02:18:43.519Z,14.47
2023-10-25T02:21:12.249Z,13.57
2023-10-25T02:23:41.428Z,14.20
2023-10-25T02:26:09.430Z,13.07
2023-10-25T02:28:38.701Z,13.57
2023-10-25T02:31:06.674Z,13.47
2023-10-25T02:33:34.645Z,13.73
2023-10-25T02:36:02.577Z,13.13
2023-10-25T02:38:30.466Z,14.27
2023-10-25T02:40:58.442Z,13.23
2023-10-25T02:43:26.351Z,13.10
2023-10-25T02:45:55.660Z,12.73
2023-10-25T02:48:23.737Z,13.50
2023-10-25T02:50:51.616Z,13.17
2023-10-25T02:53:19.472Z,13.00
2023-10-25T02:55:48.533Z,12.63
2023-10-25T02:58:17.001Z,13.73
2023-10-25T03:00:45.059Z,12.97
2023-10-25T03:03:14.478Z,13.30
2023-10-25T03:05:42.411Z,12.77
2023-10-25T03:08:09.350Z,14.23
2023-10-25T03:10:37.255Z,13.03
2023-10-25T03:13:06.498Z,11.67
2023-10-25T03:15:34.563Z,12.70
2023-10-25T03:18:03.581Z,12.70
2023-10-25T03:20:34.139Z,12.10
2023-10-25T03:23:02.598Z,12.60
2023-10-25T03:25:30.634Z,12.30
2023-10-25T03:27:58.604Z,12.73
2023-10-25T03:30:26.595Z,12.97
2023-10-25T03:32:54.634Z,12.60
2023-10-25T03:35:22.546Z,11.50
2023-10-25T03:37:51.799Z,11.20
2023-10-25T03:40:20.276Z,11.83
2023-10-25T03:42:48.303Z,12.50
2023-10-25T03:45:16.247Z,10.63
2023-10-25T03:47:44.157Z,9.67
2023-10-25T03:50:12.220Z,11.53
2023-10-25T03:52:40.873Z,9.20
2023-10-25T03:55:10.795Z,10.53
2023-10-25T03:57:38.743Z,10.83
2023-10-25T04:00:07.935Z,10.20
2023-10-25T04:02:35.853Z,10.37
2023-10-25T04:05:03.731Z,10.47
2023-10-25T04:07:31.616Z,11.10
2023-10-25T04:09:59.498Z,10.47
2023-10-25T04:12:29.839Z,9.93
2023-10-25T04:14:57.977Z,9.77
2023-10-25T04:17:25.834Z,9.60
2023-10-25T04:19:53.687Z,9.87
2023-10-25T04:22:21.615Z,10.07
2023-10-25T04:24:48.596Z,10.47
2023-10-25T04:27:16.515Z,10.87
2023-10-25T04:29:45.770Z,10.47
2023-10-25T04:32:13.649Z,9.97
2023-10-25T04:34:41.561Z,9.80
2023-10-25T04:37:09.474Z,9.87
2023-10-25T04:39:37.368Z,9.33
2023-10-25T04:42:05.638Z,10.33
2023-10-25T04:44:33.697Z,10.23
2023-10-25T04:47:03.308Z,9.93
2023-10-25T04:49:31.199Z,10.20
2023-10-25T04:51:59.126Z,10.10
2023-10-25T04:54:27.078Z,9.97
2023-10-25T04:56:56.289Z,9.67
2023-10-25T04:59:24.185Z,9.57
2023-10-25T05:01:52.166Z,10.33
2023-10-25T05:04:21.534Z,10.57
2023-10-25T05:06:50.067Z,9.53
2023-10-25T05:09:18.782Z,8.93
2023-10-25T05:11:56.858Z,9.07
2023-10-25T05:14:25.367Z,11.20
2023-10-25T05:16:53.886Z,9.67
2023-10-25T05:19:23.993Z,9.57
2023-10-25T05:21:53.165Z,10.20
2023-10-25T05:24:21.646Z,11.13
2023-10-25T05:26:50.163Z,9.60
2023-10-25T05:29:17.545Z,11.30
2023-10-25T05:31:46.227Z,10.23
2023-10-25T05:34:14.629Z,10.40
2023-10-25T05:36:45.006Z,10.23
2023-10-25T05:39:13.319Z,10.07
2023-10-25T05:41:42.594Z,10.93
2023-10-25T05:44:15.736Z,10.40
2023-10-25T05:46:44.053Z,10.53
2023-10-25T05:49:12.606Z,9.83
2023-10-25T05:51:41.215Z,10.67
2023-10-25T05:54:11.575Z,10.50
2023-10-25T05:56:39.983Z,10.27
2023-10-25T05:59:08.537Z,10.70
2023-10-25T06:01:47.658Z,10.70
2023-10-25T06:04:16.325Z,10.30
2023-10-25T06:06:46.395Z,9.70
2023-10-25T06:09:16.317Z,9.40
2023-10-25T06:11:44.730Z,9.23
2023-10-25T06:14:13.104Z,8.93
2023-10-25T06:16:41.326Z,9.60
2023-10-25T06:19:09.335Z,9.07
2023-10-25T06:21:37.216Z,10.33
2023-10-25T06:24:05.586Z,10.33
2023-10-25T06:26:34.862Z,9.97
2023-10-25T06:29:02.975Z,10.40
2023-10-25T06:31:31.036Z,9.40
2023-10-25T06:34:00.020Z,10.23
2023-10-25T06:36:28.597Z,9.27
2023-10-25T06:38:56.992Z,10.20
2023-10-25T06:41:25.749Z,11.33
2023-10-25T06:43:55.712Z,10.23
2023-10-25T06:46:24.175Z,10.13
2023-10-25T06:48:53.570Z,11.03
2023-10-25T06:51:21.964Z,10.27
2023-10-25T06:53:50.413Z,10.27
2023-10-25T06:56:18.699Z,10.47
2023-10-25T06:58:47.189Z,10.87
2023-10-25T07:01:19.954Z,10.10
2023-10-25T07:03:50.074Z,11.30
2023-10-25T07:06:19.798Z,11.47
2023-10-25T07:08:49.716Z,11.07
2023-10-25T07:11:17.884Z,9.97
2023-10-25T07:13:45.769Z,10.33
2023-10-25T07:16:13.983Z,9.97
2023-10-25T07:18:44.516Z,11.50
2023-10-25T07:21:12.529Z,10.27
2023-10-25T07:23:40.449Z,12.37
2023-10-25T07:26:08.805Z,10.17
2023-10-25T07:28:36.722Z,10.57
2023-10-25T07:31:04.778Z,11.20
2023-10-25T07:33:32.828Z,11.20
2023-10-25T07:36:02.071Z,11.40
2023-10-25T07:38:28.951Z,11.30
2023-10-25T07:40:56.802Z,12.67
2023-10-25T07:43:25.560Z,12.77
2023-10-25T07:45:56.459Z,12.97
2023-10-25T07:48:24.722Z,11.70
2023-10-25T07:50:52.663Z,11.77
2023-10-25T07:53:23.274Z,13.17
2023-10-25T07:58:27.518Z,15.93
2023-10-25T08:00:56.740Z,12.23
2023-10-25T08:03:25.972Z,12.53
2023-10-25T08:05:54.263Z,11.60
2023-10-25T08:08:23.957Z,11.63
2023-10-25T08:11:00.872Z,12.10
2023-10-25T08:13:28.874Z,12.17
2023-10-25T08:16:00.230Z,12.90
2023-10-25T08:22:30.581Z,13.13
2023-10-25T08:24:59.998Z,12.03
2023-10-25T08:27:28.092Z,15.03
2023-10-25T08:29:57.621Z,14.60
2023-10-25T08:32:25.924Z,14.27
2023-10-25T08:34:54.053Z,13.90
2023-10-25T08:37:21.977Z,16.40
2023-10-25T08:39:49.967Z,14.97
2023-10-25T08:42:19.244Z,14.77
2023-10-25T08:44:49.047Z,14.37
2023-10-25T08:47:17.186Z,13.63
2023-10-25T08:49:45.362Z,12.73
2023-10-25T08:52:14.373Z,11.63
2023-10-25T08:54:43.313Z,11.40
2023-10-25T08:57:11.433Z,9.70
2023-10-25T08:59:47.144Z,9.63
2023-10-25T09:02:16.171Z,9.10
2023-10-25T09:05:00.043Z,9.63
2023-10-25T09:07:32.317Z,9.20
2023-10-25T09:10:00.967Z,10.73
2023-10-25T09:12:29.055Z,8.93
2023-10-25T09:14:58.495Z,8.83
2023-10-25T09:17:26.724Z,8.37
2023-10-25T09:19:54.762Z,8.83
2023-10-25T09:22:23.918Z,8.73
2023-10-25T09:24:52.794Z,9.47
2023-10-25T09:27:21.885Z,10.40
2023-10-25T09:29:51.095Z,9.30
2023-10-25T09:32:22.268Z,9.10
2023-10-25T09:34:51.159Z,8.97
2023-10-25T09:37:19.317Z,8.50
2023-10-25T09:39:47.336Z,8.97
2023-10-25T09:42:19.460Z,8.03
2023-10-25T09:44:51.910Z,7.97
2023-10-25T09:47:21.454Z,6.77
2023-10-25T09:49:57.903Z,7.37
2023-10-25T09:52:28.762Z,6.80
2023-10-25T09:55:05.106Z,6.03
2023-10-25T09:57:34.821Z,5.90
2023-10-25T10:00:03.615Z,6.07
2023-10-25T10:02:38.719Z,5.67
2023-10-25T10:05:15.366Z,5.03
2023-10-25T10:07:49.953Z,5.40
2023-10-25T10:10:23.501Z,4.53
2023-10-25T10:12:53.073Z,4.83
2023-10-25T10:15:26.314Z,4.47
2023-10-25T10:18:04.544Z,4.77
2023-10-25T10:20:32.899Z,4.03
2023-10-25T10:23:05.873Z,4.40
2023-10-25T10:25:46.956Z,4.53
2023-10-25T10:28:15.552Z,4.53
2023-10-25T10:30:44.845Z,4.50
2023-10-25T10:33:16.249Z,3.40
2023-10-25T10:35:49.007Z,3.67
2023-10-25T10:38:17.115Z,2.77
2023-10-25T10:40:50.512Z,3.23
2023-10-25T10:43:18.646Z,3.27
2023-10-25T10:45:47.814Z,2.70
2023-10-25T10:48:22.303Z,3.07
2023-10-25T10:50:51.513Z,3.40
2023-10-25T10:53:19.498Z,3.33
2023-10-25T10:55:48.201Z,2.57
2023-10-25T10:58:16.205Z,3.10
2023-10-25T11:00:46.960Z,2.87
2023-10-25T11:03:17.993Z,2.80
2023-10-25T11:05:46.175Z,2.20
2023-10-25T11:08:15.965Z,2.33
2023-10-25T11:10:44.475Z,2.30
2023-10-25T11:13:12.755Z,2.53
2023-10-25T11:15:40.925Z,2.53
2023-10-25T11:18:10.981Z,2.20
2023-10-25T11:20:42.541Z,1.97
2023-10-25T11:23:11.567Z,2.03
2023-10-25T11:25:40.416Z,2.17
2023-10-25T11:28:08.926Z,2.20
2023-10-25T11:30:37.897Z,2.40
2023-10-25T11:33:08.789Z,1.73
2023-10-25T11:35:39.244Z,1.97
2023-10-25T11:38:09.018Z,2.10
2023-10-25T11:40:40.086Z,1.83
2023-10-25T11:43:08.757Z,1.90
2023-10-25T11:45:38.732Z,1.73
2023-10-25T11:48:09.095Z,1.70
2023-10-25T11:50:37.941Z,2.17
2023-10-25T11:53:05.982Z,2.07
2023-10-25T11:55:35.569Z,2.10
2023-10-25T11:58:05.363Z,1.80
2023-10-25T12:00:33.425Z,2.20
2023-10-25T12:03:02.219Z,1.83
2023-10-25T12:05:30.843Z,1.80
2023-10-25T12:07:58.835Z,1.97
2023-10-25T12:10:28.762Z,2.27
2023-10-25T12:12:58.100Z,2.80
2023-10-25T12:15:26.102Z,2.37
2023-10-25T12:17:54.098Z,1.83
2023-10-25T12:20:28.130Z,2.10
2023-10-25T12:22:57.556Z,2.00
2023-10-25T12:25:25.908Z,2.00
2023-10-25T12:27:53.961Z,1.27
2023-10-25T12:30:24.072Z,1.83
2023-10-25T12:32:57.471Z,2.43
2023-10-25T12:35:25.475Z,2.60
2023-10-25T12:37:55.440Z,2.13
2023-10-25T12:40:23.365Z,2.23
2023-10-25T12:42:53.250Z,2.23
2023-10-25T12:45:24.719Z,1.73
2023-10-25T12:47:52.858Z,2.27
2023-10-25T12:50:20.881Z,1.87
2023-10-25T12:52:48.841Z,1.50
2023-10-25T12:55:17.384Z,1.33
2023-10-25T12:57:45.408Z,1.50
2023-10-25T13:00:14.394Z,1.50
2023-10-25T13:02:45.812Z,1.40
2023-10-25T13:05:14.281Z,1.37
2023-10-25T13:07:44.504Z,1.03
2023-10-25T13:10:12.912Z,1.43
2023-10-25T13:12:41.160Z,1.50
2023-10-25T13:15:09.828Z,1.67
2023-10-25T13:17:37.875Z,1.30
2023-10-25T13:20:10.352Z,2.10
2023-10-25T13:22:38.382Z,1.80
2023-10-25T13:25:08.894Z,1.90
2023-10-25T13:27:37.345Z,1.53
2023-10-25T13:30:05.977Z,1.47
2023-10-25T13:32:34.228Z,1.50
2023-10-25T13:35:02.295Z,1.20
2023-10-25T13:37:31.657Z,1.53
2023-10-25T13:39:59.592Z,1.57
2023-10-25T13:42:29.868Z,1.10
2023-10-25T13:44:57.889Z,1.40
2023-10-25T13:47:26.967Z,1.30
2023-10-25T13:49:55.213Z,1.67
2023-10-25T13:52:23.248Z,2.27
2023-10-25T13:54:58.888Z,1.70
2023-10-25T13:57:29.672Z,1.43
2023-10-25T13:59:59.992Z,1.57
2023-10-25T14:02:28.558Z,1.87
2023-10-25T14:05:01.856Z,1.63
2023-10-25T14:07:29.824Z,1.53
2023-10-25T14:09:59.956Z,2.13
2023-10-25T14:12:29.240Z,25.67
2023-10-25T14:14:57.375Z,2.23
2023-10-25T14:17:25.708Z,3.53
2023-10-25T14:19:53.656Z,2.90
2023-10-25T14:22:22.276Z,1.90
2023-10-25T14:24:50.402Z,2.07
2023-10-25T14:27:22.113Z,1.63
2023-10-25T14:29:50.104Z,8.33
2023-10-25T14:32:18.106Z,5.87
2023-10-25T14:34:46.665Z,4.00
2023-10-25T14:37:14.739Z,3.00
2023-10-25T14:43:08.644Z,2.07
2023-10-25T14:45:37.004Z,1.90
2023-10-25T14:48:05.490Z,2.43
2023-10-25T14:50:35.821Z,5.63
2023-10-25T14:53:03.788Z,4.70
2023-10-25T14:55:34.246Z,4.67
2023-10-25T14:58:02.739Z,4.33
2023-10-25T15:00:32.196Z,3.30
2023-10-25T15:03:00.476Z,2.83
2023-10-25T15:05:28.940Z,8.80
2023-10-25T15:07:58.645Z,7.00
2023-10-25T15:10:26.669Z,6.40
2023-10-25T15:12:54.905Z,3.37
2023-10-25T15:15:23.172Z,3.13
2023-10-25T15:17:53.930Z,3.53
2023-10-25T15:20:22.126Z,3.00
2023-10-25T15:22:50.023Z,2.67
2023-10-25T15:25:18.237Z,2.20
2023-10-25T15:27:46.572Z,1.90
2023-10-25T15:30:15.075Z,1.83
2023-10-25T15:32:43.152Z,1.60
2023-10-25T15:35:12.946Z,1.57
2023-10-25T15:37:41.523Z,1.40
2023-10-25T15:40:17.137Z,1.80
2023-10-25T15:42:46.543Z,1.67
2023-10-25T15:45:16.172Z,4.93
2023-10-25T15:47:44.854Z,5.73
2023-10-25T15:50:14.465Z,7.17
2023-10-25T15:52:46.106Z,8.20
2023-10-25T15:55:23.500Z,7.87
2023-10-25T15:57:51.486Z,6.97
2023-10-25T16:00:19.918Z,5.27
2023-10-25T16:02:48.226Z,3.90
2023-10-25T16:05:20.154Z,2.70
2023-10-25T16:07:48.753Z,3.43
2023-10-25T16:10:16.817Z,2.67
2023-10-25T16:12:44.782Z,3.50
2023-10-25T16:15:13.068Z,2.87
2023-10-25T16:17:41.108Z,2.30
2023-10-25T16:20:10.177Z,2.50
2023-10-25T16:22:39.474Z,2.40
2023-10-25T16:25:08.273Z,7.87
2023-10-25T16:27:36.226Z,8.80
2023-10-25T16:30:04.512Z,7.20
2023-10-25T16:32:33.539Z,9.03
2023-10-25T16:35:01.756Z,7.83
2023-10-25T16:37:29.730Z,9.43
2023-10-25T16:39:59.047Z,5.97
2023-10-25T16:42:26.943Z,5.60
2023-10-25T16:44:54.962Z,4.80
2023-10-25T16:47:23.298Z,4.43
2023-10-25T16:49:53.455Z,4.20
2023-10-25T16:52:21.519Z,3.87
2023-10-25T16:54:49.551Z,3.67
2023-10-25T16:57:19.304Z,3.83
2023-10-25T16:59:47.287Z,3.37
2023-10-25T17:02:15.551Z,3.23
2023-10-25T17:04:44.343Z,2.73
2023-10-25T17:07:13.134Z,3.63
2023-10-25T17:09:41.198Z,2.70
2023-10-25T17:12:09.944Z,3.40
2023-10-25T17:14:41.326Z,3.40
2023-10-25T17:17:09.345Z,2.73
2023-10-25T17:19:37.364Z,3.33
2023-10-25T17:22:05.791Z,4.30
2023-10-25T17:24:34.114Z,4.17
2023-10-25T17:27:02.257Z,5.50
2023-10-25T17:29:30.321Z,5.80
2023-10-25T17:32:00.030Z,5.20
2023-10-25T17:34:28.086Z,3.77
2023-10-25T17:36:58.744Z,3.60
2023-10-25T17:39:27.292Z,3.83
2023-10-25T17:41:55.431Z,4.27
2023-10-25T17:44:24.058Z,4.77
2023-10-25T17:46:53.516Z,3.93
2023-10-25T17:49:23.223Z,4.47
2023-10-25T17:51:51.967Z,4.80
2023-10-25T17:54:20.229Z,4.80
2023-10-25T17:56:48.318Z,4.90
2023-10-25T17:59:16.431Z,6.50
2023-10-25T18:01:44.765Z,5.30
2023-10-25T18:04:13.237Z,5.63
2023-10-25T18:09:18.054Z,5.60
2023-10-25T18:11:47.028Z,6.27
2023-10-25T18:14:15.770Z,6.30
2023-10-25T18:16:44.263Z,5.90
2023-10-25T18:19:12.375Z,7.07
2023-10-25T18:21:40.358Z,6.00
2023-10-25T18:24:13.630Z,6.17
2023-10-25T18:26:41.939Z,6.50
2023-10-25T18:29:10.509Z,6.83
2023-10-25T18:31:56.741Z,7.30
2023-10-25T18:34:29.302Z,7.27
2023-10-25T18:36:57.924Z,6.53
2023-10-25T18:39:27.491Z,8.23
2023-10-25T18:41:57.195Z,7.27
2023-10-25T18:44:25.580Z,6.87
2023-10-25T18:46:54.052Z,7.57
2023-10-25T18:49:22.610Z,6.63
2023-10-25T18:51:52.009Z,7.90
2023-10-25T18:54:20.856Z,9.27
2023-10-25T18:56:50.676Z,7.90
2023-10-25T18:59:19.733Z,8.67
2023-10-25T19:01:47.783Z,7.93
2023-10-25T19:04:16.062Z,7.33
2023-10-25T19:06:47.897Z,7.10
2023-10-25T19:09:18.274Z,8.53
2023-10-25T19:11:46.869Z,7.80
2023-10-25T19:14:16.519Z,7.93
2023-10-25T19:16:46.109Z,7.83
2023-10-25T19:19:14.417Z,7.33
2023-10-25T19:21:42.617Z,8.33
2023-10-25T19:24:10.995Z,7.80
2023-10-25T19:26:47.740Z,8.07
2023-10-25T19:29:19.722Z,9.23
2023-10-25T19:31:48.487Z,8.33
2023-10-25T19:34:16.754Z,8.33
2023-10-25T19:36:45.554Z,8.93
2023-10-25T19:39:14.040Z,9.27
2023-10-25T19:41:42.341Z,8.60
2023-10-25T19:44:10.811Z,8.33
2023-10-25T19:46:40.597Z,8.30
2023-10-25T19:49:09.308Z,9.47
2023-10-25T19:51:37.227Z,9.67
2023-10-25T19:54:06.093Z,8.93
2023-10-25T19:56:35.737Z,9.33
2023-10-25T19:59:05.300Z,8.23
2023-10-25T20:01:33.975Z,9.07
2023-10-25T20:04:05.137Z,8.17
2023-10-25T20:06:33.720Z,9.17
2023-10-25T20:09:03.100Z,8.50
2023-10-25T20:11:36.565Z,8.80
2023-10-25T20:14:05.252Z,8.57
2023-10-25T20:16:33.504Z,8.73
2023-10-25T20:19:03.123Z,7.70
2023-10-25T20:21:32.069Z,8.77
2023-10-25T20:24:02.385Z,7.77
2023-10-25T20:26:35.098Z,8.03
2023-10-25T20:29:04.067Z,7.53
2023-10-25T20:31:32.416Z,7.43
2023-10-25T20:34:00.583Z,7.90
2023-10-25T20:36:30.994Z,7.77
2023-10-25T20:39:00.071Z,8.37
2023-10-25T20:41:29.086Z,8.00
2023-10-25T20:43:57.550Z,7.20
2023-10-25T20:46:25.789Z,7.80
2023-10-25T20:48:54.556Z,7.27
2023-10-25T20:51:24.698Z,7.70
2023-10-25T20:53:54.857Z,8.60
2023-10-25T20:56:22.982Z,7.90
2023-10-25T20:58:51.034Z,7.93
2023-10-25T21:01:19.085Z,8.03
2023-10-25T21:03:47.542Z,7.93
2023-10-25T21:06:15.752Z,9.17
2023-10-25T21:08:43.876Z,8.53
2023-10-25T21:11:13.382Z,8.47
2023-10-25T21:13:41.430Z,8.93
2023-10-25T21:16:13.752Z,7.47
2023-10-25T21:18:42.233Z,8.17
2023-10-25T21:21:10.287Z,9.47
2023-10-25T21:23:41.465Z,7.83
2023-10-25T21:26:10.318Z,8.83
2023-10-25T21:28:39.916Z,8.00
2023-10-25T21:31:08.823Z,8.47
2023-10-25T21:33:37.226Z,8.50
2023-10-25T21:36:06.950Z,8.20
2023-10-25T21:38:35.028Z,8.50
2023-10-25T21:41:04.362Z,8.13
2023-10-25T21:43:33.509Z,8.33
2023-10-25T21:46:03.108Z,7.87
2023-10-25T21:48:31.269Z,8.17
2023-10-25T21:51:01.203Z,8.80
2023-10-25T21:53:29.803Z,7.80
2023-10-25T21:56:23.505Z,8.10
2023-10-25T21:59:49.621Z,8.57
2023-10-25T22:01:36.971Z,8.40
2023-10-25T22:04:05.901Z,8.97
2023-10-25T22:06:35.222Z,8.50
2023-10-25T22:09:03.954Z,10.17
2023-10-25T22:11:32.126Z,9.23
2023-10-25T22:14:00.233Z,8.00
2023-10-25T22:16:28.358Z,7.80
2023-10-25T22:18:58.151Z,8.73
2023-10-25T22:21:26.351Z,8.77
2023-10-25T22:23:54.553Z,9.17
2023-10-25T22:26:22.518Z,8.50
2023-10-25T22:28:52.821Z,8.50
2023-10-25T22:31:25.776Z,8.83
2023-10-25T22:33:54.030Z,7.87
2023-10-25T22:36:23.888Z,7.43
2023-10-25T22:38:50.972Z,9.20
2023-10-25T22:41:26.797Z,8.03
2023-10-25T22:43:55.794Z,8.87
2023-10-25T22:46:23.879Z,7.77
2023-10-25T22:48:51.842Z,8.37
2023-10-25T22:51:19.935Z,8.60
2023-10-25T22:53:49.478Z,9.20
2023-10-25T22:56:17.492Z,8.30
2023-10-25T22:58:45.429Z,8.20
2023-10-25T23:01:13.375Z,8.17
2023-10-25T23:03:41.410Z,8.53
2023-10-25T23:06:09.473Z,8.43
2023-10-25T23:08:37.461Z,7.93
2023-10-25T23:11:06.855Z,8.63
2023-10-25T23:13:34.826Z,9.20
2023-10-25T23:16:04.379Z,8.43
2023-10-25T23:18:32.429Z,9.60
2023-10-25T23:21:01.296Z,8.50
2023-10-25T23:23:29.383Z,8.90
2023-10-25T23:25:57.407Z,8.07
2023-10-25T23:28:26.911Z,8.47
2023-10-25T23:30:54.956Z,8.37
2023-10-25T23:33:23.233Z,8.77
2023-10-25T23:36:01.711Z,8.93
2023-10-25T23:38:29.975Z,9.40
2023-10-25T23:40:58.086Z,9.00
2023-10-25T23:43:28.828Z,9.23
2023-10-25T23:45:58.846Z,9.03
2023-10-25T23:48:27.097Z,8.73
2023-10-25T23:50:55.947Z,9.53
2023-10-25T23:53:23.999Z,9.07
2023-10-25T23:55:52.904Z,8.90
2023-10-25T23:58:20.900Z,8.93
